Data for 02/05/2009

Time Sea-Level Adjusted Pressure Absolute Pressure Temperature Relative Humidity Dew Point   
(mb) (inHg) (mb) (inHg) (C) (F) (%) (C) (F)
00:05 1020 30.12 849 25.07 2.5 36.5 41 -9.3 15.2
00:10 1020 30.12 849 25.07 2.2 36 42 -9.5 14.9
00:15 1020 30.12 849 25.07 2.2 36 42 -9.5 14.8
00:20 1020 30.12 849 25.07 2.3 36.2 41 -9.7 14.5
00:25 1020 30.12 849 25.07 2.3 36.1 43 -9 15.7
00:30 1020 30.12 849 25.07 2.1 35.8 43 -9.3 15.2
00:35 1019 30.09 849 25.07 2.2 36 44 -8.8 16.1
00:40 1019 30.09 849 25.07 2.5 36.5 38 -10.4 13.3
00:45 1019 30.09 849 25.07 2.9 37.2 38 -10 14
00:50 1019 30.09 849 25.07 2.6 36.7 40 -9.6 14.6
00:55 1019 30.09 848 25.04 2.1 35.8 42 -9.4 15
01:00 1019 30.09 848 25.04 1.7 35 44 -9.4 15.2
01:05 1019 30.09 848 25.04 1.4 34.5 47 -8.7 16.3
01:10 1019 30.09 848 25.04 0.6 33.1 51 -8.3 17.1
01:15 1019 30.09 848 25.04 0.5 32.8 46 -9.7 14.5
01:20 1019 30.09 848 25.04 1.4 34.5 42 -10.2 13.6
01:25 1019 30.09 848 25.04 1.8 35.3 43 -9.6 14.7
01:30 1019 30.09 848 25.04 1.5 34.6 45 -9.3 15.2
01:35 1019 30.09 848 25.04 1.1 34 46 -9.2 15.4
01:40 1019 30.09 848 25.04 1 33.7 45 -9.8 14.4
01:45 1019 30.09 848 25.04 1.7 35 40 -10.4 13.3
01:50 1019 30.09 848 25.04 2.4 36.3 40 -10 14
01:55 1019 30.09 848 25.04 2 35.5 42 -9.5 14.9
02:00 1019 30.09 848 25.04 1.7 35 43 -9.7 14.5
02:05 1019 30.09 848 25.04 1.7 35 43 -9.7 14.6
02:10 1019 30.09 848 25.04 1.3 34.4 44 -9.7 14.5
02:15 1019 30.09 848 25.04 1 33.9 46 -9.3 15.3
02:20 1019 30.09 848 25.04 0.5 32.9 49 -8.9 15.9
02:25 1019 30.09 848 25.04 -0.2 31.6 52 -9 15.8
02:30 1019 30.09 848 25.04 -0.4 31.3 54 -8.6 16.5
02:35 1019 30.09 848 25.04 -0.6 30.9 52 -9.2 15.4
02:40 1019 30.09 848 25.04 -0.1 31.9 48 -9.8 14.4
02:45 1019 30.09 848 25.04 0.3 32.5 48 -9.5 15
02:50 1019 30.09 848 25.04 0.7 33.2 44 -10.1 13.8
02:55 1019 30.09 848 25.04 1.4 34.6 41 -10.3 13.5
03:00 1019 30.09 848 25.04 1.4 34.5 46 -9.1 15.5
03:05 1019 30.09 848 25.04 0.3 32.5 48 -9.6 14.8
03:10 1019 30.09 848 25.04 0.8 33.4 43 -10.4 13.3
03:15 1019 30.09 848 25.04 1.4 34.5 43 -9.9 14.1
03:20 1019 30.09 848 25.04 1.2 34.2 42 -10.3 13.4
03:25 1019 30.09 848 25.04 1.5 34.7 41 -10.3 13.5
03:30 1019 30.09 848 25.04 1.4 34.5 42 -10.3 13.4
03:35 1019 30.09 848 25.04 1 33.8 45 -9.7 14.6
03:40 1019 30.09 848 25.04 0.5 32.8 45 -10 13.9
03:45 1019 30.09 848 25.04 0.5 32.9 45 -10.1 13.8
03:50 1019 30.09 848 25.04 0.7 33.3 43 -10.6 12.9
03:55 1019 30.09 848 25.04 1.3 34.4 41 -10.4 13.3
04:00 1019 30.09 848 25.04 1.3 34.3 42 -10.4 13.3
04:05 1019 30.09 848 25.04 1.2 34.1 42 -10.5 13.1
04:10 1019 30.09 848 25.04 1.1 33.9 42 -10.3 13.4
04:15 1019 30.09 848 25.04 0.9 33.7 43 -10.3 13.5
04:20 1019 30.09 848 25.04 0.8 33.5 43 -10.4 13.2
04:25 1019 30.09 848 25.04 0.8 33.4 43 -10.5 13
04:30 1019 30.09 848 25.04 1.3 34.4 41 -10.5 13.1
04:35 1019 30.09 848 25.04 1.2 34.2 42 -10.3 13.4
04:40 1019 30.09 848 25.04 0.9 33.7 44 -10.1 13.8
04:45 1019 30.09 848 25.04 0.5 32.9 45 -10 14
04:50 1019 30.09 848 25.04 0.2 32.4 47 -9.9 14.2
04:55 1018 30.06 848 25.04 -0.2 31.6 48 -10.1 13.8
05:00 1018 30.06 848 25.04 0.4 32.6 43 -10.8 12.5
05:05 1018 30.06 848 25.04 1.4 34.5 40 -10.8 12.5
05:10 1018 30.06 848 25.04 1.9 35.4 39 -10.5 13.1
05:15 1018 30.06 848 25.04 0.9 33.6 45 -9.7 14.5
05:20 1018 30.06 847 25.01 -0 32 46 -10.3 13.4
05:25 1018 30.06 847 25.01 0.5 33 42 -11 12.3
05:30 1018 30.06 847 25.01 0.6 33 44 -10.5 13.1
05:35 1018 30.06 847 25.01 0.1 32.1 44 -10.9 12.4
05:40 1018 30.06 847 25.01 0.2 32.3 43 -11.1 12.1
05:45 1018 30.06 847 25.01 0.4 32.6 43 -11 12.3
05:50 1018 30.06 847 25.01 0.2 32.3 43 -10.9 12.4
05:55 1018 30.06 847 25.01 0 32 44 -10.7 12.7
06:00 1018 30.06 847 25.01 -0.2 31.6 45 -10.8 12.5
06:05 1018 30.06 847 25.01 -0.2 31.7 44 -11.1 12
06:10 1018 30.06 847 25.01 0.3 32.6 42 -11.1 12
06:15 1018 30.06 847 25.01 0.3 32.6 45 -10.4 13.3
06:20 1018 30.06 847 25.01 -0.1 31.9 44 -10.9 12.4
06:25 1018 30.06 847 25.01 -0.1 31.8 45 -10.8 12.5
06:30 1018 30.06 847 25.01 -0 32 43 -11.2 11.8
06:35 1018 30.06 847 25.01 0.2 32.3 43 -11 12.3
06:40 1018 30.06 847 25.01 0.1 32.3 43 -11 12.3
06:45 1018 30.06 847 25.01 0.2 32.4 42 -11.3 11.7
06:50 1018 30.06 847 25.01 0.6 33.1 41 -11.2 11.8
06:55 1018 30.06 847 25.01 0.6 33.1 41 -11.3 11.6
07:00 1018 30.06 847 25.01 0.9 33.7 40 -11.4 11.5
07:05 1018 30.06 847 25.01 0.9 33.5 41 -11.1 12.1
07:10 1018 30.06 847 25.01 0.4 32.7 43 -10.8 12.5
07:15 1018 30.06 847 25.01 0 32.1 43 -11 12.1
07:20 1018 30.06 847 25.01 0.1 32.2 42 -11.4 11.4
07:25 1018 30.06 847 25.01 0.3 32.5 42 -11.2 11.8
07:30 1018 30.06 847 25.01 0.2 32.3 41 -11.6 11.2
07:35 1018 30.06 847 25.01 0.7 33.2 39 -11.7 10.9
07:40 1018 30.06 847 25.01 0.6 33.2 42 -11 12.3
07:45 1018 30.06 847 25.01 -0.1 31.8 45 -10.6 13
07:50 1018 30.06 847 25.01 -0.9 30.5 48 -10.7 12.8
07:55 1018 30.06 847 25.01 -1.1 29.9 47 -11 12.2
08:00 1018 30.06 847 25.01 -0.9 30.4 45 -11.3 11.6
08:05 1018 30.06 847 25.01 0.3 32.5 40 -11.9 10.5
08:10 1018 30.06 847 25.01 0.7 33.3 41 -11.2 11.9
08:15 1018 30.06 847 25.01 0.2 32.3 41 -11.5 11.3
08:20 1018 30.06 847 25.01 0.5 32.8 40 -11.8 10.8
08:25 1018 30.06 847 25.01 0.6 33 41 -11.3 11.6
08:30 1018 30.06 847 25.01 0.6 33.1 39 -11.8 10.8
08:35 1018 30.06 847 25.01 0.8 33.4 40 -11.5 11.4
08:40 1018 30.06 847 25.01 0.4 32.8 41 -11.4 11.4
08:45 1018 30.06 847 25.01 0.5 32.9 39 -12 10.4
08:50 1018 30.06 847 25.01 1.3 34.3 37 -11.9 10.5
08:55 1018 30.06 847 25.01 1.5 34.7 37 -11.6 11.1
09:00 1017 30.03 847 25.01 1.5 34.7 38 -11.2 11.8
09:05 1017 30.03 847 25.01 1.6 34.8 37 -11.7 10.9
09:10 1017 30.03 847 25.01 1.9 35.4 36 -11.7 11
09:15 1017 30.03 847 25.01 2.1 35.8 35 -11.7 10.9
09:20 1017 30.03 847 25.01 2.2 36 35 -11.7 11
09:25 1017 30.03 846 24.98 2.5 36.5 33 -12.1 10.2
09:30 1017 30.03 846 24.98 2.8 37 31 -12.5 9.4
09:35 1017 30.03 847 25.01 3.3 37.9 31 -12.3 9.8
09:40 1017 30.03 847 25.01 3.7 38.6 32 -11.8 10.8
09:45 1017 30.03 846 24.98 4.3 39.7 29 -12.1 10.2
09:50 1017 30.03 846 24.98 4.7 40.4 30 -11.4 11.4
09:55 1017 30.03 846 24.98 5.2 41.4 30 -11.2 11.8
10:00 1017 30.03 846 24.98 5.3 41.5 28 -11.8 10.7
10:05 1017 30.03 846 24.98 5.5 41.9 30 -10.9 12.4
10:10 1017 30.03 846 24.98 6.2 43.1 29 -10.8 12.6
10:15 1017 30.03 846 24.98 6.4 43.6 29 -10.3 13.4
10:20 1017 30.03 846 24.98 6.1 42.9 30 -10.3 13.5
10:25 1017 30.03 846 24.98 5.9 42.7 29 -10.6 12.9
10:30 1017 30.03 846 24.98 5.9 42.5 29 -10.7 12.8
10:35 1017 30.03 846 24.98 5.8 42.4 30 -10.5 13.2
10:40 1017 30.03 846 24.98 5.8 42.4 30 -10.6 12.9
10:45 1017 30.03 846 24.98 5.8 42.5 30 -10.6 12.9
10:50 1017 30.03 846 24.98 6.2 43.1 29 -10.6 12.9
10:55 1017 30.03 846 24.98 6.1 43 28 -11 12.3
11:00 1017 30.03 846 24.98 6.1 42.9 29 -10.6 12.9
11:05 1017 30.03 846 24.98 6.2 43.2 29 -10.6 13
11:10 1016 30 846 24.98 6.6 43.9 28 -10.5 13.1
11:15 1016 30 846 24.98 7 44.5 30 -9.4 15
11:20 1016 30 846 24.98 6.1 43.1 32 -9.5 14.8
11:25 1016 30 845 24.95 6.9 44.5 29 -9.7 14.5
11:30 1016 30 845 24.95 8 46.5 27 -9.9 14.2
11:35 1016 30 845 24.95 7.3 45.1 29 -9.5 15
11:40 1016 30 845 24.95 8 46.4 27 -10 14
11:45 1016 30 845 24.95 8.6 47.5 27 -9.4 15.1
11:50 1016 30 845 24.95 8.6 47.5 29 -8.4 16.8
11:55 1016 30 845 24.95 8.6 47.5 28 -8.7 16.3
12:00 1016 30 845 24.95 8.7 47.7 29 -8.4 16.9
12:05 1016 30 845 24.95 8.2 46.8 30 -8.4 16.9
12:10 1016 30 845 24.95 7.9 46.2 29 -9.1 15.6
12:15 1015 29.97 845 24.95 8.2 46.8 28 -9.2 15.5
12:20 1015 29.97 845 24.95 8.5 47.3 28 -9.2 15.4
12:25 1015 29.97 844 24.92 8.6 47.5 29 -8.3 17.1
12:30 1015 29.97 844 24.92 8.5 47.3 28 -9.1 15.6
12:35 1015 29.97 844 24.92 7.9 46.2 29 -9 15.7
12:40 1015 29.97 844 24.92 7.3 45.1 30 -9.2 15.5
12:45 1015 29.97 844 24.92 6.6 43.9 33 -8.7 16.4
12:50 1015 29.97 844 24.92 6.7 44 31 -9.2 15.4
12:55 1015 29.97 844 24.92 7.1 44.7 30 -9.3 15.2
13:00 1015 29.97 844 24.92 7.2 45 31 -8.9 16.1
13:05 1014 29.94 844 24.92 7.3 45.1 32 -8.5 16.7
13:10 1014 29.94 843 24.89 6.8 44.3 33 -8.4 16.9
13:15 1014 29.94 843 24.89 6.6 43.9 32 -9 15.9
13:20 1014 29.94 843 24.89 6.6 43.9 33 -8.6 16.5
13:25 1014 29.94 843 24.89 6.8 44.2 32 -8.9 15.9
13:30 1014 29.94 843 24.89 6.7 44 31 -9.3 15.3
13:35 1014 29.94 843 24.89 6.8 44.2 32 -8.9 15.9
13:40 1014 29.94 843 24.89 7 44.6 29 -9.7 14.5
13:45 1014 29.94 843 24.89 6.3 43.4 30 -9.8 14.3
13:50 1014 29.94 843 24.89 6.4 43.4 32 -9.4 15.1
13:55 1014 29.94 843 24.89 6.2 43.1 31 -9.9 14.3
14:00 1014 29.94 843 24.89 6.3 43.3 30 -10.3 13.5
14:05 1014 29.94 843 24.89 6.2 43.2 30 -10.3 13.4
14:10 1014 29.94 843 24.89 6.2 43.1 29 -10.7 12.7
14:15 1013 29.91 843 24.89 6.3 43.3 28 -10.7 12.7
14:20 1013 29.91 843 24.89 6.3 43.4 30 -10.2 13.7
14:25 1013 29.91 843 24.89 6.8 44.2 28 -10.6 12.9
14:30 1013 29.91 843 24.89 7 44.6 29 -10 14.1
14:35 1013 29.91 843 24.89 7.3 45.2 28 -10.2 13.7
14:40 1013 29.91 843 24.89 7.1 44.8 33 -8.3 17.1
14:45 1013 29.91 842 24.86 7.2 44.9 32 -8.6 16.5
14:50 1013 29.91 842 24.86 6.8 44.2 33 -8.3 17.1
14:55 1013 29.91 842 24.86 6.8 44.2 33 -8.3 17
15:00 1013 29.91 842 24.86 6.9 44.4 36 -7.2 19
15:05 1013 29.91 842 24.86 6.8 44.3 38 -6.7 20
15:10 1013 29.91 842 24.86 6.1 43.1 40 -6.5 20.4
15:15 1013 29.91 842 24.86 5.7 42.3 39 -7.1 19.2
15:20 1013 29.91 842 24.86 6 42.8 39 -6.8 19.7
15:25 1013 29.91 842 24.86 6.2 43.2 35 -8.3 17.1
15:30 1013 29.91 842 24.86 6 42.8 38 -7.1 19.2
15:35 1013 29.91 842 24.86 5.9 42.6 35 -8.4 16.8
15:40 1013 29.91 842 24.86 6.2 43.1 36 -7.9 17.7
15:45 1012 29.88 842 24.86 6.5 43.6 41 -5.8 21.6
15:50 1012 29.88 842 24.86 6.3 43.3 37 -7.5 18.6
15:55 1012 29.88 841 24.83 6.3 43.3 35 -8 17.6
16:00 1012 29.88 841 24.83 6.7 44.1 32 -8.9 16
16:05 1012 29.88 841 24.83 7.1 44.7 33 -8.1 17.4
16:10 1012 29.88 841 24.83 7.1 44.8 34 -7.8 18
16:15 1012 29.88 841 24.83 7.1 44.7 35 -7.4 18.6
16:20 1012 29.88 841 24.83 6.9 44.5 34 -7.9 17.8
16:25 1012 29.88 841 24.83 7 44.7 34 -7.9 17.7
16:30 1012 29.88 841 24.83 7.3 45.1 33 -7.9 17.7
16:35 1011 29.85 841 24.83 7.5 45.5 32 -8.1 17.3
16:40 1011 29.85 841 24.83 7.6 45.6 32 -8.1 17.5
16:45 1011 29.85 841 24.83 7.5 45.6 32 -8.2 17.3
16:50 1011 29.85 841 24.83 7.8 46 32 -7.9 17.7
16:55 1011 29.85 841 24.83 7.8 46 33 -7.4 18.6
17:00 1011 29.85 841 24.83 7.1 44.9 33 -7.9 17.7
17:05 1011 29.85 841 24.83 7.5 45.5 33 -7.7 18.1
17:10 1011 29.85 840 24.81 7.7 45.8 33 -7.5 18.4
17:15 1011 29.85 840 24.81 7.3 45.1 34 -7.5 18.5
17:20 1011 29.85 840 24.81 7.5 45.5 33 -7.8 17.9
17:25 1011 29.85 840 24.81 7.3 45.2 36 -6.8 19.7
17:30 1011 29.85 840 24.81 6.8 44.3 36 -7.2 19
17:35 1011 29.85 840 24.81 7.2 44.9 36 -7 19.4
17:40 1011 29.85 840 24.81 6.7 44 36 -7.4 18.7
17:45 1011 29.85 840 24.81 6.8 44.3 34 -7.8 18
17:50 1011 29.85 840 24.81 7.5 45.5 33 -7.6 18.2
17:55 1011 29.85 840 24.81 7.6 45.7 32 -7.9 17.8
18:00 1011 29.85 840 24.81 8 46.4 32 -7.9 17.8
18:05 1011 29.85 840 24.81 7.8 46 34 -7.2 19.1
18:10 1011 29.85 840 24.81 7.2 44.9 34 -7.6 18.2
18:15 1011 29.85 840 24.81 7.6 45.7 29 -9.5 15
18:20 1011 29.85 840 24.81 8.1 46.6 32 -7.7 18.2
18:25 1011 29.85 840 24.81 8.1 46.5 31 -8.2 17.2
18:30 1011 29.85 840 24.81 8 46.4 33 -7.5 18.6
18:35 1011 29.85 840 24.81 8.4 47.1 25 -10.3 13.5
18:40 1011 29.85 840 24.81 8.8 47.9 27 -9 15.8
18:45 1011 29.85 840 24.81 7.9 46.2 31 -8 17.6
18:50 1011 29.85 840 24.81 7.4 45.4 30 -9.1 15.6
18:55 1011 29.85 840 24.81 8.1 46.6 29 -9 15.7
19:00 1011 29.85 840 24.81 8.6 47.6 27 -9.6 14.8
19:05 1010 29.83 840 24.81 9 48.2 26 -9.7 14.5
19:10 1010 29.83 840 24.81 9 48.2 25 -10.2 13.6
19:15 1010 29.83 840 24.81 9 48.3 28 -8.6 16.5
19:20 1010 29.83 840 24.81 7.8 46 31 -8.2 17.2
19:25 1010 29.83 840 24.81 7.4 45.3 29 -9.4 15.1
19:30 1010 29.83 840 24.81 7.9 46.1 29 -9.2 15.5
19:35 1010 29.83 840 24.81 7.4 45.2 30 -8.9 16
19:40 1010 29.83 839 24.78 7.1 44.8 32 -8.6 16.5
19:45 1010 29.83 839 24.78 6.8 44.3 29 -9.9 14.2
19:50 1010 29.83 839 24.78 7.1 44.8 31 -9.1 15.7
19:55 1010 29.83 839 24.78 7 44.5 31 -9.1 15.7
20:00 1010 29.83 839 24.78 6.8 44.3 31 -9.1 15.6
20:05 1010 29.83 839 24.78 7.1 44.7 27 -10.6 13
20:10 1010 29.83 839 24.78 7.5 45.5 29 -9.5 15
20:15 1010 29.83 839 24.78 7.2 45 27 -10.4 13.2
20:20 1010 29.83 839 24.78 7.7 45.9 28 -9.7 14.5
20:25 1010 29.83 839 24.78 7.6 45.6 29 -9.6 14.7
20:30 1010 29.83 839 24.78 7.2 44.9 31 -9.1 15.7
20:35 1010 29.83 839 24.78 6.5 43.8 32 -9.1 15.7
20:40 1009 29.8 839 24.78 6.3 43.3 31 -9.8 14.3
20:45 1009 29.8 839 24.78 6.9 44.4 29 -9.9 14.3
20:50 1009 29.8 839 24.78 7 44.5 30 -9.3 15.3
20:55 1009 29.8 839 24.78 6.3 43.4 32 -9.2 15.5
21:00 1009 29.8 838 24.75 5.9 42.7 31 -9.8 14.4
21:05 1009 29.8 838 24.75 6.1 43 29 -10.8 12.6
21:10 1009 29.8 838 24.75 6.7 44.1 29 -10.1 13.7
21:15 1009 29.8 838 24.75 6.8 44.2 29 -10 14.1
21:20 1009 29.8 838 24.75 6.7 44 29 -10.2 13.7
21:25 1009 29.8 838 24.75 6.3 43.4 31 -9.5 14.9
21:30 1009 29.8 838 24.75 6.2 43.1 29 -10.4 13.2
21:35 1009 29.8 838 24.75 6.5 43.7 30 -10 14
21:40 1009 29.8 838 24.75 6.6 43.9 26 -11.4 11.5
21:45 1009 29.8 838 24.75 6.9 44.4 29 -9.8 14.3
21:50 1009 29.8 838 24.75 6.6 43.9 27 -11.1 12.1
21:55 1009 29.8 838 24.75 7.2 45 27 -10.4 13.3
22:00 1009 29.8 838 24.75 6.9 44.5 28 -10.4 13.3
22:05 1009 29.8 838 24.75 6.8 44.3 28 -10.3 13.5
22:10 1009 29.8 838 24.75 6.9 44.4 27 -11 12.2
22:15 1009 29.8 839 24.78 7 44.6 28 -10.4 13.2
22:20 1009 29.8 839 24.78 6.7 44.1 29 -10.1 13.9
22:25 1009 29.8 839 24.78 6.3 43.4 29 -10.5 13.1
22:30 1009 29.8 839 24.78 6.3 43.3 29 -10.3 13.4
22:35 1009 29.8 839 24.78 6.4 43.5 28 -11 12.1
22:40 1009 29.8 838 24.75 7 44.5 28 -10.5 13
22:45 1009 29.8 839 24.78 6.9 44.3 29 -9.9 14.1
22:50 1009 29.8 838 24.75 6.9 44.3 27 -11 12.2
22:55 1009 29.8 838 24.75 6.9 44.5 29 -10.1 13.8
23:00 1009 29.8 838 24.75 6.3 43.4 29 -10.3 13.4
23:05 1009 29.8 838 24.75 6.1 43 30 -10.2 13.7
23:10 1009 29.8 838 24.75 5.9 42.6 31 -10.2 13.6
23:15 1009 29.8 838 24.75 5.8 42.4 31 -10.1 13.8
23:20 1009 29.8 838 24.75 5.6 42 32 -10 14
23:25 1009 29.8 838 24.75 5.7 42.3 30 -10.8 12.6
23:30 1009 29.8 838 24.75 6.4 43.5 29 -10.2 13.6
23:35 1009 29.8 838 24.75 6 42.9 31 -9.9 14.2
23:40 1009 29.8 838 24.75 5.6 42 33 -9.6 14.7
23:45 1009 29.8 838 24.75 4.9 40.9 35 -9.2 15.4
23:50 1009 29.8 838 24.75 4.5 40 35 -9.7 14.5
23:55 1009 29.8 838 24.75 4.3 39.8 37 -9 15.9
24:00 1009 29.8 838 24.75 4.3 39.7 36 -9.7 14.5